Time;durP1;ratioP1;P1;durP2;ratioP2;P2;SDS_P1;SDS_P2;PMS_P1;PMS_P2;Temp;Humidity;BMP_temperature;BMP_pressure;BME280_temperature;BME280_humidity;BME280_pressure;Samples;Min_cycle;Max_cycle;Signal;HPM_P1;HPM_P2
2021/01/05 00:01:13;;;;;;;17.50;16.10;;;4.00;99.90;;;;;;5091563;28;20482;-68
2021/01/05 00:03:39;;;;;;;18.97;17.47;;;4.00;99.90;;;;;;5091998;28;20442;-67
2021/01/05 00:06:06;;;;;;;18.67;17.20;;;4.00;99.90;;;;;;5091885;28;20446;-67
2021/01/05 00:08:32;;;;;;;18.10;16.60;;;3.90;99.90;;;;;;5091274;28;20457;-68
2021/01/05 00:10:58;;;;;;;18.40;16.90;;;3.90;99.90;;;;;;5091634;28;20972;-68
2021/01/05 00:13:25;;;;;;;18.77;17.27;;;4.00;99.90;;;;;;5091858;28;20492;-68
2021/01/05 00:15:51;;;;;;;17.87;16.37;;;4.00;99.90;;;;;;5091801;28;20448;-67
2021/01/05 00:18:18;;;;;;;17.70;16.10;;;4.00;99.90;;;;;;5091907;28;20445;-67
2021/01/05 00:20:44;;;;;;;18.90;17.20;;;4.00;99.90;;;;;;5091362;28;20466;-67
2021/01/05 00:23:11;;;;;;;22.27;18.87;;;4.00;99.90;;;;;;5091721;28;20881;-67
2021/01/05 00:25:37;;;;;;;18.80;17.37;;;3.90;99.90;;;;;;5091727;28;20952;-67
2021/01/05 00:28:04;;;;;;;18.50;17.10;;;3.90;99.90;;;;;;5091640;28;20450;-67
2021/01/05 00:30:30;;;;;;;17.83;16.43;;;4.00;99.90;;;;;;5091370;28;20470;-67
2021/01/05 00:32:56;;;;;;;18.07;16.67;;;4.00;99.90;;;;;;5091631;28;20460;-67
2021/01/05 00:35:26;;;;;;;18.27;16.73;;;3.90;99.90;;;;;;5091589;28;20455;-66
2021/01/05 00:37:53;;;;;;;19.97;18.27;;;3.90;99.90;;;;;;5091619;28;20434;-67
2021/01/05 00:40:21;;;;;;;19.23;17.40;;;3.90;99.90;;;;;;5091245;28;20470;-66
2021/01/05 00:42:47;;;;;;;20.27;18.57;;;3.90;99.90;;;;;;5091417;28;20482;-67
2021/01/05 00:45:19;;;;;;;18.47;17.10;;;3.90;99.90;;;;;;5091509;28;20747;-66
2021/01/05 00:47:45;;;;;;;18.80;17.17;;;4.00;99.90;;;;;;5091402;28;20438;-67
2021/01/05 00:50:12;;;;;;;19.23;17.33;;;4.00;99.90;;;;;;5091111;28;20519;-67
2021/01/05 00:52:39;;;;;;;19.03;17.43;;;3.90;99.90;;;;;;5091393;28;20470;-66
2021/01/05 00:55:07;;;;;;;19.03;17.63;;;4.00;99.90;;;;;;5091441;28;20511;-67
2021/01/05 00:57:33;;;;;;;21.20;19.47;;;4.00;99.90;;;;;;5091276;28;20442;-66
2021/01/05 00:59:59;;;;;;;21.57;19.87;;;3.90;99.90;;;;;;5091159;28;20993;-66
2021/01/05 01:02:26;;;;;;;18.63;17.03;;;3.90;99.90;;;;;;5091289;28;20524;-66
2021/01/05 01:04:52;;;;;;;21.87;19.97;;;3.90;99.90;;;;;;5091213;28;20450;-67
2021/01/05 01:07:18;;;;;;;18.80;17.33;;;3.80;99.90;;;;;;5091306;28;20477;-66
2021/01/05 01:09:45;;;;;;;20.43;18.70;;;3.80;99.90;;;;;;5090991;28;20458;-66
2021/01/05 01:12:17;;;;;;;22.57;20.27;;;3.80;99.90;;;;;;5091101;28;20507;-67
2021/01/05 01:14:45;;;;;;;20.17;18.43;;;3.80;99.90;;;;;;5091296;28;20445;-66
2021/01/05 01:17:12;;;;;;;21.87;20.00;;;3.90;99.90;;;;;;5091146;28;20442;-66
2021/01/05 01:19:38;;;;;;;19.83;17.93;;;3.90;99.90;;;;;;5091429;28;20469;-66
2021/01/05 01:22:05;;;;;;;20.37;18.37;;;3.90;99.90;;;;;;5094963;28;20851;-66
2021/01/05 01:24:31;;;;;;;21.70;19.50;;;3.90;99.90;;;;;;5094962;28;20438;-66
2021/01/05 01:26:58;;;;;;;20.90;19.10;;;3.90;99.90;;;;;;5094965;28;20450;-67
2021/01/05 01:29:27;;;;;;;19.60;17.80;;;3.90;99.90;;;;;;5094901;28;20462;-66
2021/01/05 01:31:54;;;;;;;20.30;18.60;;;3.90;99.90;;;;;;5094610;28;20785;-67
2021/01/05 01:34:23;;;;;;;21.93;19.83;;;3.90;99.90;;;;;;5094876;28;20442;-66
2021/01/05 01:36:58;;;;;;;21.10;19.23;;;3.90;99.90;;;;;;5094579;28;20446;-67
2021/01/05 01:39:24;;;;;;;21.20;19.17;;;3.90;99.90;;;;;;5094493;28;20564;-66
2021/01/05 01:41:51;;;;;;;20.77;18.90;;;3.90;99.90;;;;;;5094401;28;21048;-67
2021/01/05 01:44:21;;;;;;;20.67;18.70;;;4.00;99.90;;;;;;5094593;28;20454;-66
2021/01/05 01:46:48;;;;;;;21.73;19.83;;;3.90;99.90;;;;;;5094463;28;20442;-67
2021/01/05 01:49:15;;;;;;;21.30;19.10;;;4.00;99.90;;;;;;5094476;28;20462;-67
2021/01/05 01:51:42;;;;;;;21.67;19.70;;;4.00;99.90;;;;;;5094266;28;20441;-67
2021/01/05 01:54:47;;;;;;;21.57;19.57;;;3.90;99.90;;;;;;5094427;28;20492;-67
2021/01/05 01:57:42;;;;;;;19.90;18.10;;;4.00;99.90;;;;;;5094437;28;20439;-67
2021/01/05 02:00:35;;;;;;;22.30;20.10;;;3.90;99.90;;;;;;5094023;28;20462;-66
2021/01/05 02:03:23;;;;;;;21.17;19.40;;;3.90;99.90;;;;;;5094148;28;20488;-67
2021/01/05 02:06:04;;;;;;;20.30;18.50;;;4.00;99.90;;;;;;5094148;28;20962;-67
2021/01/05 02:08:38;;;;;;;21.07;19.17;;;3.90;99.90;;;;;;5094166;28;20434;-67
2021/01/05 02:11:15;;;;;;;23.23;21.13;;;3.90;99.90;;;;;;5093805;28;20468;-67
2021/01/05 02:14:07;;;;;;;20.40;18.57;;;3.90;99.90;;;;;;5094171;28;20446;-67
2021/01/05 02:16:41;;;;;;;18.47;16.80;;;3.90;99.90;;;;;;5094088;28;20479;-66
2021/01/05 02:19:15;;;;;;;21.67;19.40;;;3.90;99.90;;;;;;5093805;28;20443;-66
2021/01/05 02:21:53;;;;;;;22.10;20.20;;;4.00;99.90;;;;;;5093709;28;20480;-66
2021/01/05 02:24:36;;;;;;;20.63;18.73;;;3.90;99.90;;;;;;5093994;28;20446;-66
2021/01/05 02:27:08;;;;;;;20.20;18.40;;;3.90;99.90;;;;;;5093843;28;20442;-66
2021/01/05 02:29:39;;;;;;;19.97;18.23;;;3.90;99.90;;;;;;5093676;28;20462;-67
2021/01/05 02:32:36;;;;;;;21.03;19.10;;;3.80;99.90;;;;;;5093090;28;20438;-67
2021/01/05 02:35:20;;;;;;;21.47;19.47;;;3.80;99.90;;;;;;5093056;28;20446;-67
2021/01/05 02:38:03;;;;;;;20.33;18.63;;;3.90;99.90;;;;;;5093604;28;20853;-66
2021/01/05 02:40:54;;;;;;;23.10;20.80;;;3.80;99.90;;;;;;5093196;28;20481;-67
2021/01/05 02:43:38;;;;;;;20.13;18.33;;;3.80;99.90;;;;;;5093453;28;20484;-67
2021/01/05 02:46:24;;;;;;;20.10;18.50;;;3.80;99.90;;;;;;5093396;28;20446;-67
2021/01/05 02:49:02;;;;;;;20.30;18.70;;;3.80;99.90;;;;;;5093391;28;20468;-67
2021/01/05 02:51:49;;;;;;;22.20;19.83;;;3.80;99.90;;;;;;5093182;28;20445;-67
2021/01/05 02:54:49;;;;;;;20.93;19.10;;;3.90;99.90;;;;;;5059279;28;20446;-67
2021/01/05 02:57:27;;;;;;;20.80;18.90;;;3.90;99.90;;;;;;5093218;28;20438;-67
2021/01/05 03:00:20;;;;;;;21.80;19.80;;;3.90;99.90;;;;;;5092836;28;20462;-66
2021/01/05 03:03:14;;;;;;;19.93;18.23;;;3.90;99.90;;;;;;5093031;28;20478;-67
2021/01/05 03:05:45;;;;;;;20.63;18.83;;;3.90;99.90;;;;;;5093143;28;20446;-67
2021/01/05 03:08:12;;;;;;;21.37;19.67;;;3.90;99.90;;;;;;5093039;28;20443;-67
2021/01/05 03:10:54;;;;;;;22.20;20.17;;;3.90;99.90;;;;;;5092658;28;20976;-67
2021/01/05 03:13:39;;;;;;;20.17;18.43;;;3.90;99.90;;;;;;5093014;28;20454;-67
2021/01/05 03:16:12;;;;;;;21.70;19.60;;;4.00;99.90;;;;;;5092767;28;20442;-66
2021/01/05 03:18:49;;;;;;;21.70;19.40;;;3.90;99.90;;;;;;5092835;28;20450;-66
2021/01/05 03:21:21;;;;;;;21.23;19.43;;;3.90;99.90;;;;;;5092559;28;20507;-66
2021/01/05 03:23:49;;;;;;;20.77;18.97;;;3.90;99.90;;;;;;5092804;28;20446;-66
2021/01/05 03:26:19;;;;;;;21.27;19.43;;;3.90;99.90;;;;;;5092760;28;20446;-67
2021/01/05 03:28:45;;;;;;;22.33;20.23;;;3.90;99.90;;;;;;5092711;28;20449;-67
2021/01/05 03:31:19;;;;;;;20.77;18.90;;;3.90;99.90;;;;;;5092293;28;20454;-67
2021/01/05 03:33:50;;;;;;;19.60;17.70;;;3.90;99.90;;;;;;5092681;28;20508;-67
2021/01/05 03:36:16;;;;;;;21.97;19.90;;;4.00;99.90;;;;;;5092547;28;20438;-67
2021/01/05 03:38:43;;;;;;;19.70;18.00;;;3.90;99.90;;;;;;5092326;28;20454;-67
2021/01/05 03:41:09;;;;;;;20.57;18.57;;;3.90;99.90;;;;;;5092016;28;20462;-66
2021/01/05 03:43:35;;;;;;;20.03;18.23;;;3.90;99.90;;;;;;5091409;28;20446;-66
2021/01/05 03:46:01;;;;;;;21.20;19.00;;;3.90;99.90;;;;;;5092225;28;20438;-66
2021/01/05 03:48:29;;;;;;;21.77;19.80;;;3.90;99.90;;;;;;5092289;28;20450;-66
2021/01/05 03:50:55;;;;;;;21.70;19.80;;;3.90;99.90;;;;;;5091831;28;20820;-66
2021/01/05 03:53:21;;;;;;;21.83;19.63;;;3.90;99.90;;;;;;5092148;28;20830;-66
2021/01/05 03:55:47;;;;;;;22.37;20.20;;;3.90;99.90;;;;;;5092197;28;20950;-66
2021/01/05 03:58:14;;;;;;;20.10;18.40;;;3.90;99.90;;;;;;5092090;28;20450;-66
2021/01/05 04:00:40;;;;;;;20.20;18.40;;;3.90;99.90;;;;;;5091720;28;20458;-66
2021/01/05 04:03:06;;;;;;;22.23;19.10;;;3.90;99.90;;;;;;5091824;28;20478;-66
2021/01/05 04:05:33;;;;;;;22.50;20.30;;;4.00;99.90;;;;;;5092003;28;20438;-66
2021/01/05 04:07:59;;;;;;;21.97;19.87;;;3.90;99.90;;;;;;5091914;28;20472;-66
2021/01/05 04:10:26;;;;;;;21.23;19.20;;;3.90;99.90;;;;;;5091575;28;20511;-66
2021/01/05 04:12:52;;;;;;;20.80;18.90;;;3.90;99.90;;;;;;5091904;28;20499;-66
2021/01/05 04:15:22;;;;;;;20.87;19.07;;;3.90;99.90;;;;;;5091838;28;20460;-66
2021/01/05 04:17:48;;;;;;;22.20;20.30;;;3.90;99.90;;;;;;5091885;28;20811;-66
2021/01/05 04:20:15;;;;;;;22.00;20.03;;;3.90;99.90;;;;;;5091678;28;20474;-66
2021/01/05 04:22:42;;;;;;;22.47;20.17;;;3.90;99.90;;;;;;5092113;28;20478;-66
2021/01/05 04:25:10;;;;;;;21.50;19.47;;;3.90;99.90;;;;;;5091773;28;20469;-67
2021/01/05 04:27:36;;;;;;;20.60;18.80;;;3.80;99.90;;;;;;5091663;28;20453;-66
2021/01/05 04:30:04;;;;;;;23.13;20.83;;;3.80;99.90;;;;;;5091415;28;20462;-66
2021/01/05 04:32:30;;;;;;;22.17;20.00;;;3.80;99.90;;;;;;5091561;28;20438;-66
2021/01/05 04:34:56;;;;;;;24.27;21.97;;;3.80;99.90;;;;;;5091625;28;20445;-66
2021/01/05 04:37:22;;;;;;;21.67;19.77;;;3.80;99.90;;;;;;5091600;28;20446;-67
2021/01/05 04:39:49;;;;;;;21.50;19.33;;;3.80;99.90;;;;;;5091049;28;20474;-66
2021/01/05 04:42:23;;;;;;;22.27;20.13;;;3.80;99.90;;;;;;5091425;28;20486;-66
2021/01/05 04:44:56;;;;;;;21.13;19.30;;;3.80;99.90;;;;;;5091557;28;20445;-67
2021/01/05 04:47:31;;;;;;;21.37;19.37;;;3.80;99.90;;;;;;5091484;28;20438;-66
2021/01/05 04:50:05;;;;;;;22.63;20.63;;;3.80;99.90;;;;;;5091262;28;20465;-66
2021/01/05 04:52:38;;;;;;;22.80;20.50;;;3.80;99.90;;;;;;5091427;28;20939;-67
2021/01/05 04:55:16;;;;;;;21.90;19.90;;;3.80;99.90;;;;;;5092774;28;20451;-67
2021/01/05 04:57:43;;;;;;;22.27;20.17;;;3.80;99.90;;;;;;5095747;28;20450;-67
2021/01/05 05:00:20;;;;;;;21.50;19.40;;;3.80;99.90;;;;;;5095197;28;20508;-67
2021/01/05 05:02:53;;;;;;;21.57;19.67;;;3.90;99.90;;;;;;5095995;28;20477;-67
2021/01/05 05:05:47;;;;;;;22.67;20.67;;;3.90;99.90;;;;;;5095345;28;20500;-66
2021/01/05 05:08:42;;;;;;;21.97;20.07;;;3.90;99.90;;;;;;5095251;28;20452;-66
2021/01/05 05:11:13;;;;;;;22.10;20.07;;;3.80;99.90;;;;;;5094955;28;20458;-66
2021/01/05 05:13:48;;;;;;;21.27;19.30;;;3.80;99.90;;;;;;5095328;28;20442;-67
2021/01/05 05:16:28;;;;;;;21.33;19.53;;;3.80;99.90;;;;;;5095139;28;20438;-66
2021/01/05 05:19:04;;;;;;;22.73;20.63;;;3.90;99.90;;;;;;5095019;28;20449;-66
2021/01/05 05:21:36;;;;;;;21.80;19.80;;;3.80;99.90;;;;;;5094763;28;20434;-65
2021/01/05 05:24:14;;;;;;;20.87;19.07;;;3.80;99.90;;;;;;5095097;28;20450;-66
2021/01/05 05:26:47;;;;;;;22.10;20.07;;;3.80;99.90;;;;;;5095034;28;20442;-66
2021/01/05 05:29:32;;;;;;;22.30;20.20;;;3.80;99.90;;;;;;5094801;28;20462;-66
2021/01/05 05:32:02;;;;;;;22.83;20.73;;;3.80;99.90;;;;;;5094926;28;20445;-66
2021/01/05 05:34:34;;;;;;;21.03;19.33;;;3.80;99.90;;;;;;5094801;28;20456;-66
2021/01/05 05:37:13;;;;;;;23.57;21.37;;;3.80;99.90;;;;;;5094735;28;20442;-66
2021/01/05 05:39:56;;;;;;;23.50;21.03;;;3.80;99.90;;;;;;5094401;28;20470;-65
2021/01/05 05:43:06;;;;;;;22.53;20.70;;;3.80;99.90;;;;;;5094698;28;20941;-66
2021/01/05 05:45:38;;;;;;;22.20;19.87;;;3.80;99.90;;;;;;5094664;28;20442;-66
2021/01/05 05:48:11;;;;;;;23.03;20.77;;;3.80;99.90;;;;;;5094578;28;20450;-67
2021/01/05 05:50:48;;;;;;;24.67;22.23;;;3.90;99.90;;;;;;5094191;28;20476;-67
2021/01/05 05:53:19;;;;;;;23.73;21.47;;;3.90;99.90;;;;;;5094619;28;20438;-67
2021/01/05 05:55:49;;;;;;;25.13;22.50;;;3.90;99.90;;;;;;5094507;28;20450;-66
2021/01/05 05:58:20;;;;;;;23.87;21.73;;;3.90;99.90;;;;;;5094279;28;20495;-66
2021/01/05 06:00:49;;;;;;;25.43;22.87;;;3.90;99.90;;;;;;5093865;28;20508;-66
2021/01/05 06:03:18;;;;;;;23.93;21.43;;;3.90;99.90;;;;;;5094272;28;20478;-66
2021/01/05 06:05:44;;;;;;;23.40;21.10;;;3.90;99.90;;;;;;5094065;28;20442;-66
2021/01/05 06:08:12;;;;;;;24.27;21.83;;;3.80;99.90;;;;;;5093308;28;20814;-66
2021/01/05 06:10:39;;;;;;;22.80;20.50;;;3.90;99.90;;;;;;5093895;28;20839;-67
2021/01/05 06:13:05;;;;;;;24.07;21.80;;;3.90;99.90;;;;;;5094170;28;20495;-67
2021/01/05 06:15:33;;;;;;;23.67;21.37;;;3.90;99.90;;;;;;5094007;28;20446;-66
2021/01/05 06:18:01;;;;;;;25.63;21.10;;;3.90;99.90;;;;;;5094148;28;20447;-66
2021/01/05 06:20:28;;;;;;;25.70;23.10;;;3.90;99.90;;;;;;5093531;28;20489;-66
2021/01/05 06:22:55;;;;;;;25.90;23.33;;;3.90;99.90;;;;;;5093850;28;20834;-66
2021/01/05 06:25:22;;;;;;;26.47;23.67;;;3.90;99.90;;;;;;5093661;28;20453;-66
2021/01/05 06:27:48;;;;;;;23.60;21.40;;;3.90;99.90;;;;;;5093488;28;20802;-66
2021/01/05 06:30:15;;;;;;;21.47;19.37;;;4.00;99.90;;;;;;5093304;28;20458;-66
2021/01/05 06:32:42;;;;;;;24.13;21.77;;;4.00;99.90;;;;;;5093597;28;20435;-66
2021/01/05 06:35:11;;;;;;;25.90;23.33;;;4.00;99.90;;;;;;5093540;28;20947;-66
2021/01/05 06:37:37;;;;;;;24.17;21.67;;;4.00;99.90;;;;;;5093671;28;20496;-66
2021/01/05 06:40:05;;;;;;;23.70;20.70;;;4.00;99.90;;;;;;5093033;28;20474;-66
2021/01/05 06:42:31;;;;;;;21.87;19.67;;;4.00;99.90;;;;;;5093184;28;20667;-66
2021/01/05 06:44:58;;;;;;;25.50;22.80;;;4.00;99.90;;;;;;5093474;28;20802;-66
2021/01/05 06:47:24;;;;;;;24.53;21.97;;;4.10;99.90;;;;;;5093408;28;20442;-67
2021/01/05 06:49:50;;;;;;;23.13;20.93;;;4.10;99.90;;;;;;5093110;28;20480;-66
2021/01/05 06:52:17;;;;;;;24.87;22.43;;;4.10;99.90;;;;;;5093267;28;20441;-66
2021/01/05 06:54:44;;;;;;;22.80;20.63;;;4.10;99.90;;;;;;5093081;28;20450;-66
2021/01/05 06:57:10;;;;;;;24.47;21.97;;;4.10;99.90;;;;;;5093079;28;20442;-66
2021/01/05 06:59:36;;;;;;;25.10;22.50;;;4.20;99.90;;;;;;5092921;28;20462;-66
2021/01/05 07:02:05;;;;;;;25.60;23.00;;;4.10;99.90;;;;;;5093016;28;20478;-66
2021/01/05 07:04:32;;;;;;;23.60;21.40;;;4.20;99.90;;;;;;5092969;28;20502;-66
2021/01/05 07:06:59;;;;;;;24.80;22.30;;;4.20;99.90;;;;;;5093115;28;20438;-66
2021/01/05 07:09:26;;;;;;;21.93;19.93;;;4.10;99.90;;;;;;5092828;28;20564;-66
2021/01/05 07:11:53;;;;;;;23.67;21.37;;;4.10;99.90;;;;;;5092725;28;20442;-66
2021/01/05 07:14:21;;;;;;;22.43;20.23;;;4.10;99.90;;;;;;5092900;28;20441;-66
2021/01/05 07:16:48;;;;;;;22.83;20.60;;;4.10;99.90;;;;;;5092735;28;20446;-66
2021/01/05 07:19:15;;;;;;;23.40;21.10;;;4.10;99.90;;;;;;5092603;28;20987;-66
2021/01/05 07:21:41;;;;;;;26.07;23.43;;;4.10;99.90;;;;;;5092464;28;20450;-66
2021/01/05 07:24:08;;;;;;;22.60;20.23;;;4.20;99.90;;;;;;5092696;28;20439;-66
2021/01/05 07:26:39;;;;;;;24.20;21.53;;;4.20;99.90;;;;;;5092704;28;20518;-67
2021/01/05 07:29:06;;;;;;;23.53;21.13;;;4.20;99.90;;;;;;5092508;28;20450;-66
2021/01/05 07:31:32;;;;;;;24.60;21.93;;;4.20;99.90;;;;;;5092269;28;20452;-66
2021/01/05 07:33:58;;;;;;;23.13;20.87;;;4.30;99.90;;;;;;5092497;28;20444;-66
2021/01/05 07:36:28;;;;;;;26.67;23.83;;;4.30;99.90;;;;;;5092451;28;20473;-66
2021/01/05 07:38:54;;;;;;;21.73;19.63;;;4.30;99.90;;;;;;5091779;28;21001;-66
2021/01/05 07:41:21;;;;;;;25.27;21.27;;;4.30;99.90;;;;;;5092164;28;20525;-66
2021/01/05 07:43:48;;;;;;;24.73;22.20;;;4.30;99.90;;;;;;5092188;28;20492;-66
2021/01/05 07:46:15;;;;;;;23.87;21.30;;;4.30;99.90;;;;;;5092397;28;20450;-65
2021/01/05 07:48:42;;;;;;;25.57;23.07;;;4.30;99.90;;;;;;5091953;28;20435;-66
2021/01/05 07:51:09;;;;;;;28.27;25.53;;;4.30;99.90;;;;;;5091814;28;20454;-66
2021/01/05 07:53:36;;;;;;;26.53;24.13;;;4.30;99.90;;;;;;5092017;28;21061;-66
2021/01/05 07:56:03;;;;;;;27.07;24.43;;;4.30;99.90;;;;;;5092204;28;20949;-66
2021/01/05 07:58:30;;;;;;;26.33;23.53;;;4.30;99.90;;;;;;5091951;28;20841;-66
2021/01/05 08:00:57;;;;;;;25.53;23.17;;;4.30;99.90;;;;;;5091622;28;20823;-66
2021/01/05 08:03:23;;;;;;;27.50;24.87;;;4.30;99.90;;;;;;5091763;28;20501;-66
2021/01/05 08:05:49;;;;;;;25.33;22.77;;;4.30;99.90;;;;;;5091876;28;20445;-65
2021/01/05 08:08:15;;;;;;;24.97;22.47;;;4.30;99.90;;;;;;5091936;28;20503;-65
2021/01/05 08:10:42;;;;;;;25.90;23.27;;;4.30;99.90;;;;;;5091666;28;20469;-65
2021/01/05 08:13:11;;;;;;;25.50;22.73;;;4.40;99.90;;;;;;5091822;28;20442;-65
2021/01/05 08:15:37;;;;;;;25.37;22.67;;;4.50;99.90;;;;;;5091786;28;20452;-65
2021/01/05 08:18:07;;;;;;;25.23;21.90;;;4.50;99.90;;;;;;5091810;28;20442;-65
2021/01/05 08:20:34;;;;;;;21.67;19.63;;;4.50;99.90;;;;;;5091332;28;20466;-65
2021/01/05 08:23:01;;;;;;;24.10;21.90;;;4.60;99.90;;;;;;5091639;28;20478;-65
2021/01/05 08:25:28;;;;;;;26.53;24.00;;;4.60;99.90;;;;;;5091720;28;20495;-65
2021/01/05 08:27:54;;;;;;;24.70;22.10;;;4.70;99.90;;;;;;5091581;28;20434;-66
2021/01/05 08:30:23;;;;;;;25.03;21.33;;;4.60;99.90;;;;;;5090745;28;20462;-66
2021/01/05 08:32:50;;;;;;;24.90;22.40;;;4.60;99.90;;;;;;5091541;28;20434;-65
2021/01/05 08:35:19;;;;;;;22.33;20.00;;;4.60;99.90;;;;;;5091584;28;20448;-66
2021/01/05 08:37:45;;;;;;;26.23;23.53;;;4.70;99.90;;;;;;5091519;28;20443;-65
2021/01/05 08:40:15;;;;;;;24.37;21.87;;;4.70;99.90;;;;;;5091075;28;20477;-66
2021/01/05 08:42:41;;;;;;;24.10;21.57;;;4.60;99.90;;;;;;5091360;28;20493;-65
2021/01/05 08:45:09;;;;;;;23.40;21.10;;;4.60;99.90;;;;;;5091381;28;20453;-65
2021/01/05 08:47:35;;;;;;;28.40;21.03;;;4.60;99.90;;;;;;5091321;28;20442;-65
2021/01/05 08:50:04;;;;;;;28.13;21.50;;;4.70;99.90;;;;;;5091158;28;20516;-66
2021/01/05 08:52:31;;;;;;;28.40;22.27;;;4.70;99.90;;;;;;5090938;28;20450;-66
2021/01/05 08:54:57;;;;;;;26.27;23.77;;;4.60;99.90;;;;;;5091000;28;20438;-66
2021/01/05 08:57:23;;;;;;;24.80;22.30;;;4.70;99.90;;;;;;5091446;28;20445;-65
2021/01/05 08:59:50;;;;;;;25.40;22.00;;;4.60;99.90;;;;;;5091117;28;20518;-65
2021/01/05 09:02:16;;;;;;;25.83;23.13;;;4.70;99.90;;;;;;5091136;28;20484;-65
2021/01/05 09:04:42;;;;;;;24.33;21.53;;;4.70;99.90;;;;;;5091333;28;20845;-65
2021/01/05 09:07:09;;;;;;;24.47;22.03;;;4.70;99.90;;;;;;5091119;28;20824;-65
2021/01/05 09:09:36;;;;;;;25.40;22.90;;;4.70;99.90;;;;;;5090881;28;20466;-65
2021/01/05 09:12:03;;;;;;;26.23;22.20;;;4.70;99.90;;;;;;5091217;28;20439;-67
2021/01/05 09:14:29;;;;;;;23.20;20.90;;;4.70;99.90;;;;;;5091152;28;20442;-67
2021/01/05 09:16:57;;;;;;;28.47;24.20;;;4.70;99.90;;;;;;5091155;28;20438;-67
2021/01/05 09:19:24;;;;;;;26.97;24.17;;;4.70;99.90;;;;;;5091187;28;20462;-67
2021/01/05 09:21:50;;;;;;;26.57;23.83;;;4.70;99.90;;;;;;5090710;28;20446;-66
2021/01/05 09:24:17;;;;;;;22.90;20.90;;;4.80;99.90;;;;;;5091018;28;20446;-67
2021/01/05 09:26:44;;;;;;;23.17;20.77;;;4.80;99.90;;;;;;5091098;28;20438;-67
2021/01/05 09:29:12;;;;;;;26.43;20.30;;;4.80;99.90;;;;;;5090846;28;20442;-67
2021/01/05 09:31:42;;;;;;;23.70;21.20;;;4.80;99.90;;;;;;5090823;28;20470;-66
2021/01/05 09:34:08;;;;;;;26.77;24.23;;;4.70;99.90;;;;;;5091051;28;20446;-66
2021/01/05 09:36:35;;;;;;;26.27;22.07;;;4.80;99.90;;;;;;5090827;28;20445;-66
2021/01/05 09:39:04;;;;;;;22.93;20.80;;;4.70;99.90;;;;;;5090885;28;20454;-67
2021/01/05 09:41:33;;;;;;;24.73;22.20;;;4.80;99.90;;;;;;5092568;28;20442;-65
2021/01/05 09:44:00;;;;;;;26.67;24.00;;;4.80;99.90;;;;;;5094622;28;20842;-66
2021/01/05 09:46:26;;;;;;;23.80;21.27;;;4.80;99.90;;;;;;5094565;28;20964;-66
2021/01/05 09:48:53;;;;;;;21.70;19.80;;;4.80;99.90;;;;;;5094399;28;20442;-65
2021/01/05 09:51:21;;;;;;;25.37;23.00;;;4.80;99.90;;;;;;5094228;28;20442;-65
2021/01/05 09:53:48;;;;;;;24.43;21.87;;;4.80;99.90;;;;;;5094115;28;20434;-66
2021/01/05 09:56:14;;;;;;;25.37;22.73;;;4.80;99.90;;;;;;5094425;28;20446;-65
2021/01/05 09:58:40;;;;;;;24.43;21.53;;;4.90;99.90;;;;;;5094244;28;20886;-65
2021/01/05 10:01:07;;;;;;;23.90;21.60;;;4.90;99.90;;;;;;5094220;28;20466;-65
2021/01/05 10:03:34;;;;;;;25.23;22.53;;;4.90;99.90;;;;;;5093873;28;20508;-66
2021/01/05 10:06:00;;;;;;;26.37;23.73;;;4.90;99.90;;;;;;5094014;28;20943;-66
2021/01/05 10:08:27;;;;;;;25.20;22.60;;;4.90;99.90;;;;;;5094008;28;20450;-65
2021/01/05 10:10:53;;;;;;;26.97;24.17;;;4.90;99.90;;;;;;5093675;28;20538;-65
2021/01/05 10:13:20;;;;;;;25.53;22.50;;;4.90;99.90;;;;;;5093767;28;20430;-66
2021/01/05 10:15:46;;;;;;;25.47;22.43;;;5.00;99.90;;;;;;5093956;28;20450;-67
2021/01/05 10:18:13;;;;;;;24.80;22.37;;;5.00;99.90;;;;;;5093823;28;20503;-67
2021/01/05 10:20:39;;;;;;;26.07;23.37;;;5.00;99.90;;;;;;5093341;28;20462;-67
2021/01/05 10:23:06;;;;;;;26.70;23.83;;;5.00;99.90;;;;;;5093700;28;20496;-67
2021/01/05 10:25:33;;;;;;;27.57;24.90;;;5.10;99.90;;;;;;5093526;28;20442;-68
2021/01/05 10:27:59;;;;;;;27.60;24.47;;;5.10;99.90;;;;;;5093714;28;20443;-67
2021/01/05 10:30:26;;;;;;;25.07;22.40;;;5.20;99.90;;;;;;5093520;28;20466;-66
2021/01/05 10:32:52;;;;;;;26.60;23.90;;;5.20;99.90;;;;;;5093564;28;20438;-68
2021/01/05 10:35:21;;;;;;;25.73;23.17;;;5.20;99.90;;;;;;5093513;28;20445;-68
2021/01/05 10:37:48;;;;;;;25.43;22.73;;;5.30;99.90;;;;;;5093395;28;20801;-67
2021/01/05 10:40:16;;;;;;;24.43;22.00;;;5.40;99.90;;;;;;5093213;28;20470;-68
2021/01/05 10:42:44;;;;;;;24.83;22.43;;;5.40;99.90;;;;;;5093566;28;20481;-67
2021/01/05 10:45:13;;;;;;;28.30;22.40;;;5.30;99.90;;;;;;5093081;28;20887;-66
2021/01/05 10:47:40;;;;;;;26.93;24.20;;;5.30;99.90;;;;;;5093405;28;20448;-68
2021/01/05 10:50:08;;;;;;;30.73;24.93;;;5.30;99.90;;;;;;5092858;28;20466;-67
2021/01/05 10:52:35;;;;;;;22.80;20.70;;;5.30;99.90;;;;;;5092718;28;20442;-66
2021/01/05 10:55:01;;;;;;;26.20;23.37;;;5.40;99.90;;;;;;5093219;28;20451;-66
2021/01/05 10:57:28;;;;;;;24.27;21.87;;;5.30;99.90;;;;;;5093091;28;20932;-66
2021/01/05 10:59:54;;;;;;;25.87;23.13;;;5.30;99.90;;;;;;5093046;28;20718;-66
2021/01/05 11:02:20;;;;;;;28.13;23.20;;;5.30;99.90;;;;;;5093577;28;21002;-68
2021/01/05 11:04:46;;;;;;;23.93;21.43;;;5.40;99.90;;;;;;5092923;28;20443;-66
2021/01/05 11:07:15;;;;;;;24.17;21.87;;;5.40;99.90;;;;;;5092933;28;20446;-66
2021/01/05 11:09:43;;;;;;;24.20;21.60;;;5.50;99.90;;;;;;5092777;28;20885;-66
2021/01/05 11:12:11;;;;;;;24.13;21.73;;;5.60;99.90;;;;;;5092773;28;20450;-66
2021/01/05 11:14:39;;;;;;;24.63;22.23;;;5.60;99.90;;;;;;5092970;28;20438;-66
2021/01/05 11:17:07;;;;;;;24.77;22.20;;;5.50;99.90;;;;;;5092811;28;20443;-66
2021/01/05 11:19:34;;;;;;;25.83;23.13;;;5.50;99.90;;;;;;5092499;28;20481;-67
2021/01/05 11:22:02;;;;;;;28.77;23.10;;;5.50;99.90;;;;;;5092604;28;20445;-66
2021/01/05 11:24:30;;;;;;;24.20;21.80;;;5.60;99.90;;;;;;5092602;28;20438;-66
2021/01/05 11:26:58;;;;;;;25.93;23.27;;;5.60;99.90;;;;;;5092552;28;20438;-67
2021/01/05 11:29:25;;;;;;;24.43;22.20;;;5.70;99.90;;;;;;5092431;28;20801;-67
2021/01/05 11:31:56;;;;;;;27.13;24.27;;;5.80;99.90;;;;;;5092212;28;20446;-66
2021/01/05 11:34:23;;;;;;;25.87;21.80;;;5.80;99.90;;;;;;5092450;28;20445;-67
2021/01/05 11:36:49;;;;;;;25.40;23.10;;;5.80;99.90;;;;;;5092368;28;20454;-66
2021/01/05 11:39:15;;;;;;;24.27;22.00;;;5.90;99.90;;;;;;5092071;28;20485;-66
2021/01/05 11:41:45;;;;;;;24.33;21.73;;;5.80;99.90;;;;;;5092070;28;20949;-67
2021/01/05 11:44:13;;;;;;;23.43;21.10;;;5.80;99.90;;;;;;5091493;28;20475;-67
2021/01/05 11:46:39;;;;;;;27.73;24.50;;;5.80;99.90;;;;;;5092220;28;20442;-67
2021/01/05 11:49:06;;;;;;;24.63;22.50;;;5.70;99.90;;;;;;5092035;28;20453;-66
2021/01/05 11:51:34;;;;;;;25.63;22.97;;;5.70;99.90;;;;;;5092017;28;20519;-67
2021/01/05 11:54:01;;;;;;;24.23;21.93;;;5.70;99.90;;;;;;5092176;28;20446;-67
2021/01/05 11:56:28;;;;;;;26.53;24.20;;;5.70;99.90;;;;;;5092133;28;20434;-67
2021/01/05 11:58:55;;;;;;;26.03;23.60;;;5.70;99.90;;;;;;5091946;28;20449;-66
2021/01/05 12:01:23;;;;;;;24.30;22.00;;;5.80;99.90;;;;;;5091948;28;20446;-67
2021/01/05 12:03:50;;;;;;;27.13;24.67;;;5.90;99.90;;;;;;5091496;28;20484;-66
2021/01/05 12:06:18;;;;;;;26.67;24.13;;;5.80;99.90;;;;;;5091558;28;20442;-68
2021/01/05 12:08:45;;;;;;;26.87;24.17;;;5.80;99.90;;;;;;5091784;28;20443;-66
2021/01/05 12:11:17;;;;;;;28.00;25.07;;;5.80;99.90;;;;;;5091541;28;20989;-66
2021/01/05 12:13:43;;;;;;;26.13;23.47;;;5.80;99.90;;;;;;5091828;28;20438;-68
2021/01/05 12:16:09;;;;;;;29.17;26.17;;;5.70;99.90;;;;;;5091720;28;20461;-66
2021/01/05 12:18:37;;;;;;;29.90;26.07;;;5.70;99.90;;;;;;5091792;28;20444;-67
2021/01/05 12:21:03;;;;;;;32.80;27.10;;;5.50;99.90;;;;;;5091483;28;20466;-67
2021/01/05 12:23:29;;;;;;;29.10;26.13;;;5.70;99.90;;;;;;5091446;28;20478;-66
2021/01/05 12:25:56;;;;;;;32.97;26.47;;;5.60;99.90;;;;;;5091635;28;20450;-67
2021/01/05 12:28:25;;;;;;;30.47;27.27;;;5.60;99.90;;;;;;5091603;28;20940;-66
2021/01/05 12:30:51;;;;;;;28.50;24.87;;;5.60;99.90;;;;;;5090912;28;20465;-67
2021/01/05 12:33:18;;;;;;;27.73;24.97;;;5.60;99.90;;;;;;5091481;28;20442;-66
2021/01/05 12:35:45;;;;;;;26.57;23.87;;;5.60;99.90;;;;;;5091559;28;20500;-66
2021/01/05 12:38:11;;;;;;;24.10;21.67;;;5.70;99.90;;;;;;5091283;28;20822;-66
2021/01/05 12:40:37;;;;;;;26.20;23.60;;;5.60;99.90;;;;;;5091132;28;20531;-66
2021/01/05 12:43:04;;;;;;;29.00;24.30;;;5.70;99.90;;;;;;5091182;28;20481;-67
2021/01/05 12:45:30;;;;;;;27.00;23.80;;;5.70;99.90;;;;;;5091310;28;20450;-66
2021/01/05 12:47:56;;;;;;;28.90;23.90;;;5.70;99.90;;;;;;5091144;28;20446;-66